Spring Grove, Indiana
Current Conditions -  °F | °C
As of 11:15 AM on Saturday 25 Oct 2014 (Local Time) from KVES Reporting Station
Clear Clear  
Wind Chill: 63°   Ceiling: Unl
Heat Index: 63°   Visibility: 10mi
Dew Point: 54°   Wind: 12mph
Humidity: 72%   Direction: 250°WSW
Pressure: 29.93"   Gusts: NA
Location:  39.8311°N, 84.8879°W
Report Text: KVES 251515Z AUTO 25010KT 10SM CLR 17/12 A2993 RMK AO2
Loading
Personal Weather Stations






























Interactive Weather Map
Tropical Storm Tracking
New forecast layout! Learn more

10-Day Weather Forecast

Advertisements
Track Severe Weather on mobile